createdAt,value
2018-08-03T00:02:06.046Z,100480.31
2018-08-03T00:04:33.650Z,100484.59
2018-08-03T00:07:01.319Z,100485.48
2018-08-03T00:09:28.975Z,100481.09
2018-08-03T00:11:56.893Z,100480.62
2018-08-03T00:14:25.347Z,100480.83
2018-08-03T00:16:52.962Z,100479.00
2018-08-03T00:19:21.109Z,100477.16
2018-08-03T00:21:49.043Z,100474.63
2018-08-03T00:24:16.663Z,100477.02
2018-08-03T00:26:44.287Z,100474.98
2018-08-03T00:29:12.184Z,100475.89
2018-08-03T00:31:41.451Z,100477.10
2018-08-03T00:34:09.096Z,100473.70
2018-08-03T00:36:37.252Z,100472.73
2018-08-03T00:39:05.350Z,100477.53
2018-08-03T00:41:32.939Z,100474.84
2018-08-03T00:44:00.562Z,100478.61
2018-08-03T00:46:29.824Z,100476.45
2018-08-03T00:48:57.738Z,100475.13
2018-08-03T00:51:25.678Z,100480.28
2018-08-03T00:53:53.299Z,100477.91
2018-08-03T00:56:21.027Z,100480.30
2018-08-03T00:58:48.630Z,100478.78
2018-08-03T01:01:16.251Z,100477.80
2018-08-03T01:03:44.404Z,100482.05
2018-08-03T01:06:13.462Z,100479.87
2018-08-03T01:08:41.099Z,100474.99
2018-08-03T01:11:08.744Z,100481.47
2018-08-03T01:13:36.891Z,100481.86
2018-08-03T01:16:04.516Z,100482.58
2018-08-03T01:18:32.139Z,100478.72
2018-08-03T01:20:59.790Z,100484.86
2018-08-03T01:23:27.709Z,100478.13
2018-08-03T01:25:55.309Z,100475.75
2018-08-03T01:28:22.902Z,100480.02
2018-08-03T01:30:50.584Z,100477.13
2018-08-03T01:33:18.601Z,100476.97
2018-08-03T01:35:46.199Z,100480.55
2018-08-03T01:38:13.824Z,100480.39
2018-08-03T01:40:41.701Z,100481.41
2018-08-03T01:43:09.343Z,100481.08
2018-08-03T01:45:36.952Z,100489.38
2018-08-03T01:48:04.587Z,100486.34
2018-08-03T01:50:32.597Z,100481.78
2018-08-03T01:53:00.227Z,100474.84
2018-08-03T01:55:27.827Z,100483.64
2018-08-03T01:57:55.701Z,100476.70
2018-08-03T02:00:23.314Z,100472.14
2018-08-03T02:02:51.754Z,100473.38
2018-08-03T02:05:19.343Z,100473.23
2018-08-03T02:07:48.259Z,100473.27
2018-08-03T02:10:15.904Z,100474.86
2018-08-03T02:12:43.480Z,100464.77
2018-08-03T02:15:11.385Z,100467.31
2018-08-03T02:17:39.007Z,100467.67
2018-08-03T02:20:07.151Z,100464.47
2018-08-03T02:22:34.804Z,100466.84
2018-08-03T02:25:02.753Z,100467.84
2018-08-03T02:27:30.354Z,100466.48
2018-08-03T02:29:57.967Z,100462.58
2018-08-03T02:32:25.595Z,100470.38
2018-08-03T02:34:53.478Z,100467.01
2018-08-03T02:37:21.117Z,100473.77
2018-08-03T02:39:48.755Z,100475.66
2018-08-03T02:42:16.359Z,100475.84
2018-08-03T02:44:44.475Z,100468.05
2018-08-03T02:47:12.127Z,100478.22
2018-08-03T02:49:39.728Z,100478.74
2018-08-03T02:52:07.364Z,100471.98
2018-08-03T02:54:35.259Z,100473.83
2018-08-03T02:57:02.854Z,100476.17
2018-08-03T02:59:30.627Z,100476.53
2018-08-03T03:01:58.264Z,100479.41
2018-08-03T03:04:26.145Z,100475.84
2018-08-03T03:06:53.792Z,100480.42
2018-08-03T03:09:21.414Z,100479.26
2018-08-03T03:11:49.935Z,100480.63
2018-08-03T03:14:17.999Z,100482.99
2018-08-03T03:16:46.253Z,100494.17
2018-08-03T03:19:13.883Z,100497.37
2018-08-03T03:21:41.493Z,100495.19
2018-08-03T03:24:09.461Z,100492.98
2018-08-03T03:26:37.134Z,100497.03
2018-08-03T03:29:04.745Z,100497.89
2018-08-03T03:31:32.388Z,100494.86
2018-08-03T03:34:04.226Z,100493.50
2018-08-03T03:36:32.913Z,100494.00
2018-08-03T03:39:00.517Z,100499.91
2018-08-03T03:41:28.415Z,100500.77
2018-08-03T03:43:56.039Z,100501.94
2018-08-03T03:46:23.746Z,100501.44
2018-08-03T03:48:51.350Z,100497.20
2018-08-03T03:51:19.990Z,100498.58
2018-08-03T03:53:47.630Z,100497.55
2018-08-03T03:56:15.235Z,100500.94
2018-08-03T03:58:43.270Z,100502.11
2018-08-03T04:01:10.900Z,100498.41
2018-08-03T04:03:38.521Z,100493.51
2018-08-03T04:06:06.151Z,100500.09
2018-08-03T04:08:34.140Z,100504.63
2018-08-03T04:11:01.827Z,100501.06
2018-08-03T04:13:30.136Z,100506.14
2018-08-03T04:15:57.779Z,100496.34
2018-08-03T04:18:25.687Z,100501.06
2018-08-03T04:20:53.755Z,100500.41
2018-08-03T04:23:22.318Z,100500.75
2018-08-03T04:25:50.275Z,100498.53
2018-08-03T04:28:17.921Z,100494.67
2018-08-03T04:30:45.608Z,100498.53
2018-08-03T04:33:14.079Z,100504.28
2018-08-03T04:35:42.223Z,100502.80
2018-08-03T04:38:10.233Z,100499.74
2018-08-03T04:40:37.851Z,100503.66
2018-08-03T04:43:06.039Z,100503.30
2018-08-03T04:45:33.850Z,100501.27
2018-08-03T04:48:01.802Z,100498.24
2018-08-03T04:50:29.917Z,100496.38
2018-08-03T04:52:57.559Z,100500.59
2018-08-03T04:55:25.185Z,100492.13
2018-08-03T04:57:52.774Z,100500.56
2018-08-03T05:00:20.379Z,100493.63
2018-08-03T05:02:49.633Z,100491.23
2018-08-03T05:05:17.261Z,100495.44
2018-08-03T05:07:44.876Z,100494.91
2018-08-03T05:10:12.831Z,100496.77
2018-08-03T05:12:41.031Z,100488.25
2018-08-03T05:15:09.283Z,100491.94
2018-08-03T05:17:37.410Z,100498.14
2018-08-03T05:20:05.010Z,100502.98
2018-08-03T05:22:32.607Z,100497.18
2018-08-03T05:25:00.487Z,100495.77
2018-08-03T05:27:28.089Z,100494.02
2018-08-03T05:29:55.725Z,100498.03
2018-08-03T05:32:23.641Z,100501.34
2018-08-03T05:34:51.271Z,100498.23
2018-08-03T05:37:19.568Z,100497.28
2018-08-03T05:39:48.515Z,100501.77
2018-08-03T05:42:16.114Z,100496.73
2018-08-03T05:44:43.718Z,100500.20
2018-08-03T05:47:11.585Z,100494.34
2018-08-03T05:49:39.211Z,100491.16
2018-08-03T05:52:06.843Z,100496.32
2018-08-03T05:54:35.321Z,100492.62
2018-08-03T05:57:02.955Z,100498.42
2018-08-03T05:59:30.577Z,100492.53
2018-08-03T06:01:58.450Z,100494.78
2018-08-03T06:04:26.100Z,100488.67
2018-08-03T06:06:53.764Z,100496.92
2018-08-03T06:09:21.799Z,100494.17
2018-08-03T06:11:49.384Z,100500.78
2018-08-03T06:14:16.985Z,100504.85
2018-08-03T06:16:44.905Z,100505.18
2018-08-03T06:19:12.499Z,100505.17
2018-08-03T06:21:41.150Z,100504.95
2018-08-03T06:24:09.879Z,100504.13
2018-08-03T06:26:37.528Z,100503.25
2018-08-03T06:29:05.163Z,100495.09
2018-08-03T06:31:33.746Z,100497.66
2018-08-03T06:34:01.695Z,100500.67
2018-08-03T06:36:30.406Z,100503.94
2018-08-03T06:38:58.326Z,100501.70
2018-08-03T06:41:25.960Z,100500.32
2018-08-03T06:43:53.570Z,100494.94
2018-08-03T06:46:21.492Z,100499.91
2018-08-03T06:48:49.724Z,100501.65
2018-08-03T06:51:17.386Z,100508.41
2018-08-03T06:53:46.670Z,100500.34
2018-08-03T06:56:14.311Z,100501.86
2018-08-03T06:58:41.934Z,100498.11
2018-08-03T07:01:09.854Z,100499.58
2018-08-03T07:03:38.488Z,100501.80
2018-08-03T07:06:06.111Z,100506.11
2018-08-03T07:08:34.069Z,100502.13
2018-08-03T07:11:01.716Z,100502.64
2018-08-03T07:13:29.399Z,100504.90
2018-08-03T07:15:57.290Z,100493.51
2018-08-03T07:18:24.933Z,100492.75
2018-08-03T07:20:52.575Z,100493.45
2018-08-03T07:23:21.096Z,100500.39
2018-08-03T07:28:22.170Z,100501.23
2018-08-03T07:30:52.294Z,100493.91
2018-08-03T07:33:19.878Z,100501.00
2018-08-03T07:35:47.539Z,100495.39
2018-08-03T07:38:15.466Z,100502.59
2018-08-03T07:40:43.180Z,100496.48
2018-08-03T07:43:10.873Z,100495.36
2018-08-03T07:45:39.771Z,100503.50
2018-08-03T07:48:08.263Z,100504.74
2018-08-03T07:50:35.939Z,100498.13
2018-08-03T07:53:06.066Z,100501.37
2018-08-03T07:55:33.686Z,100492.73
2018-08-03T07:58:01.367Z,100492.61
2018-08-03T08:00:30.296Z,100485.10
2018-08-03T08:02:58.702Z,100490.38
2018-08-03T08:05:26.354Z,100487.33
2018-08-03T08:07:54.339Z,100481.61
2018-08-03T08:10:23.332Z,100482.75
2018-08-03T08:12:50.938Z,100478.61
2018-08-03T08:15:20.354Z,100478.92
2018-08-03T08:17:47.955Z,100474.03
2018-08-03T08:20:15.607Z,100473.23
2018-08-03T08:22:44.352Z,100479.92
2018-08-03T08:25:12.662Z,100478.66
2018-08-03T08:27:40.626Z,100473.81
2018-08-03T08:30:09.721Z,100475.20
2018-08-03T08:32:38.248Z,100470.87
2018-08-03T08:35:06.557Z,100472.78
2018-08-03T08:37:35.479Z,100470.06
2018-08-03T08:40:03.355Z,100466.95
2018-08-03T08:42:30.990Z,100466.66
2018-08-03T08:44:59.239Z,100461.07
2018-08-03T08:47:26.917Z,100468.20
2018-08-03T08:49:54.554Z,100459.80
2018-08-03T08:52:22.527Z,100461.39
2018-08-03T08:54:51.387Z,100454.72
2018-08-03T08:57:18.960Z,100453.45
2018-08-03T08:59:48.869Z,100453.36
2018-08-03T09:02:16.504Z,100453.55
2018-08-03T09:04:44.485Z,100447.76
2018-08-03T09:07:12.907Z,100453.59
2018-08-03T09:09:43.546Z,100453.30
2018-08-03T09:12:13.270Z,100445.48
2018-08-03T09:14:40.940Z,100447.64
2018-08-03T09:17:09.215Z,100448.88
2018-08-03T09:19:38.108Z,100447.09
2018-08-03T09:22:06.423Z,100449.23
2018-08-03T09:24:35.246Z,100437.20
2018-08-03T09:27:04.268Z,100437.96
2018-08-03T09:29:32.092Z,100432.58
2018-08-03T09:31:59.670Z,100429.99
2018-08-03T09:34:28.295Z,100426.83
2018-08-03T09:36:56.771Z,100426.98
2018-08-03T09:39:24.659Z,100420.28
2018-08-03T09:41:57.612Z,100421.99
2018-08-03T09:44:26.226Z,100417.33
2018-08-03T09:46:53.905Z,100418.48
2018-08-03T09:49:21.862Z,100412.42
2018-08-03T09:51:50.314Z,100406.81
2018-08-03T09:54:17.943Z,100407.83
2018-08-03T09:56:46.822Z,100407.97
2018-08-03T09:59:14.691Z,100405.13
2018-08-03T10:01:43.430Z,100404.64
2018-08-03T10:04:13.349Z,100412.96
2018-08-03T10:06:47.190Z,100405.44
2018-08-03T10:09:14.799Z,100401.06
2018-08-03T10:11:43.684Z,100398.82
2018-08-03T10:14:11.844Z,100406.05
2018-08-03T10:16:40.211Z,100394.84
2018-08-03T10:19:09.783Z,100395.52
2018-08-03T10:21:37.432Z,100390.81
2018-08-03T10:24:05.643Z,100392.95
2018-08-03T10:26:34.566Z,100388.94
2018-08-03T10:29:03.972Z,100386.37
2018-08-03T10:31:31.597Z,100388.68
2018-08-03T10:34:00.715Z,100386.73
2018-08-03T10:36:32.461Z,100378.83
2018-08-03T10:39:04.171Z,100385.79
2018-08-03T10:41:33.419Z,100386.02
2018-08-03T10:44:04.229Z,100378.91
2018-08-03T10:46:36.221Z,100375.92
2018-08-03T10:49:07.695Z,100368.57
2018-08-03T10:51:37.584Z,100371.45
2018-08-03T10:54:06.322Z,100358.73
2018-08-03T10:56:34.855Z,100363.55
2018-08-03T10:59:02.839Z,100363.22
2018-08-03T11:01:30.767Z,100357.98
2018-08-03T11:04:00.708Z,100357.62
2018-08-03T11:06:28.338Z,100354.70
2018-08-03T11:08:58.367Z,100359.97
2018-08-03T11:11:26.982Z,100356.06
2018-08-03T11:13:55.250Z,100352.78
2018-08-03T11:16:24.033Z,100354.65
2018-08-03T11:18:51.672Z,100350.75
2018-08-03T11:21:19.331Z,100360.75
2018-08-03T11:23:48.186Z,100354.98
2018-08-03T11:26:16.406Z,100340.45
2018-08-03T11:28:44.087Z,100347.18
2018-08-03T11:31:14.322Z,100347.11
2018-08-03T11:33:41.929Z,100346.52
2018-08-03T11:36:12.308Z,100344.55
2018-08-03T11:38:42.867Z,100339.05
2018-08-03T11:41:11.343Z,100344.64
2018-08-03T11:43:39.067Z,100341.97
2018-08-03T11:46:07.115Z,100338.73
2018-08-03T11:48:35.350Z,100333.52
2018-08-03T11:51:04.610Z,100329.56
2018-08-03T11:53:33.761Z,100329.48
2018-08-03T11:56:01.438Z,100331.92
2018-08-03T11:58:29.568Z,100324.75
2018-08-03T12:00:57.292Z,100326.62
2018-08-03T12:03:26.295Z,100318.77
2018-08-03T12:05:54.280Z,100309.84
2018-08-03T12:08:22.886Z,100318.62
2018-08-03T12:10:51.451Z,100306.02
2018-08-03T12:13:20.394Z,100302.86
2018-08-03T12:15:49.430Z,100301.82
2018-08-03T12:18:18.680Z,100297.59
2018-08-03T12:20:47.996Z,100299.95
2018-08-03T12:23:16.363Z,100296.20
2018-08-03T12:25:45.988Z,100291.86
2018-08-03T12:28:15.039Z,100297.56
2018-08-03T12:30:42.696Z,100291.44
2018-08-03T12:33:12.071Z,100287.11
2018-08-03T12:35:40.632Z,100280.95
2018-08-03T12:38:11.382Z,100291.00
2018-08-03T12:40:40.314Z,100282.33
2018-08-03T12:43:10.470Z,100278.13
2018-08-03T12:45:38.090Z,100269.99
2018-08-03T12:48:05.674Z,100272.62
2018-08-03T12:50:36.342Z,100266.26
2018-08-03T12:53:03.948Z,100271.92
2018-08-03T12:55:31.587Z,100264.24
2018-08-03T12:57:59.704Z,100257.54
2018-08-03T13:00:28.383Z,100260.55
2018-08-03T13:02:58.017Z,100254.69
2018-08-03T13:05:27.378Z,100258.84
2018-08-03T13:07:56.154Z,100258.48
2018-08-03T13:10:23.769Z,100259.26
2018-08-03T13:12:56.494Z,100256.30
2018-08-03T13:15:24.149Z,100249.55
2018-08-03T13:17:52.777Z,100247.75
2018-08-03T13:20:22.584Z,100246.13
2018-08-03T13:22:50.211Z,100244.88
2018-08-03T13:25:17.802Z,100239.63
2018-08-03T13:27:46.760Z,100243.09
2018-08-03T13:30:14.402Z,100237.45
2018-08-03T13:32:42.044Z,100240.84
2018-08-03T13:35:15.712Z,100239.67
2018-08-03T13:37:43.353Z,100235.62
2018-08-03T13:40:11.967Z,100228.21
2018-08-03T13:42:40.559Z,100227.88
2018-08-03T13:45:08.203Z,100225.30
2018-08-03T13:47:35.909Z,100224.84
2018-08-03T13:50:03.905Z,100218.42
2018-08-03T13:52:32.194Z,100214.55
2018-08-03T13:55:00.619Z,100210.63
2018-08-03T13:57:28.552Z,100209.20
2018-08-03T13:59:57.778Z,100208.94
2018-08-03T14:02:26.634Z,100206.01
2018-08-03T14:04:55.205Z,100206.36
2018-08-03T14:07:23.379Z,100205.28
2018-08-03T14:09:51.343Z,100195.61
2018-08-03T14:12:19.730Z,100198.11
2018-08-03T14:14:47.423Z,100198.95
2018-08-03T14:17:15.091Z,100185.28
2018-08-03T14:19:43.353Z,100190.31
2018-08-03T14:22:12.091Z,100185.76
2018-08-03T14:24:39.842Z,100183.65
2018-08-03T14:27:11.488Z,100186.03
2018-08-03T14:29:40.615Z,100178.86
2018-08-03T14:32:08.896Z,100179.80
2018-08-03T14:34:36.995Z,100173.56
2018-08-03T14:37:04.603Z,100174.14
2018-08-03T14:39:32.851Z,100171.47
2018-08-03T14:42:00.839Z,100161.82
2018-08-03T14:44:28.464Z,100166.28
2018-08-03T14:46:56.726Z,100161.45
2018-08-03T14:49:26.259Z,100162.52
2018-08-03T14:52:00.423Z,100166.97
2018-08-03T14:54:28.303Z,100160.64
2018-08-03T14:56:57.789Z,100152.86
2018-08-03T14:59:26.055Z,100150.17
2018-08-03T15:01:56.288Z,100150.34
2018-08-03T15:04:23.905Z,100145.30
2018-08-03T15:06:52.495Z,100146.09
2018-08-03T15:09:20.266Z,100138.94
2018-08-03T15:11:47.894Z,100136.61
2018-08-03T15:14:15.792Z,100138.48
2018-08-03T15:16:43.631Z,100133.17
2018-08-03T15:19:11.291Z,100139.04
2018-08-03T15:21:39.342Z,100127.63
2018-08-03T15:24:06.971Z,100133.38
2018-08-03T15:26:34.597Z,100125.16
2018-08-03T15:29:03.268Z,100123.72
2018-08-03T15:31:31.603Z,100123.86
2018-08-03T15:33:59.256Z,100122.08
2018-08-03T15:36:29.670Z,100124.55
2018-08-03T15:38:58.389Z,100122.84
2018-08-03T15:41:27.670Z,100126.90
2018-08-03T15:43:55.604Z,100126.94
2018-08-03T15:46:27.001Z,100121.08
2018-08-03T15:48:55.659Z,100117.19
2018-08-03T15:51:25.027Z,100122.39
2018-08-03T15:53:53.108Z,100117.05
2018-08-03T15:56:20.767Z,100116.72
2018-08-03T15:58:48.736Z,100111.22
2018-08-03T16:01:16.330Z,100112.80
2018-08-03T16:03:44.614Z,100113.97
2018-08-03T16:06:14.547Z,100107.00
2018-08-03T16:08:43.352Z,100103.55
2018-08-03T16:11:10.954Z,100105.80
2018-08-03T16:13:38.890Z,100100.47
2018-08-03T16:16:06.536Z,100099.93
2018-08-03T16:18:34.978Z,100100.73
2018-08-03T16:21:04.935Z,100100.78
2018-08-03T16:23:32.541Z,100091.61
2018-08-03T16:26:00.189Z,100092.06
2018-08-03T16:28:29.118Z,100088.22
2018-08-03T16:30:56.720Z,100090.55
2018-08-03T16:33:24.394Z,100097.44
2018-08-03T16:35:52.303Z,100088.30
2018-08-03T16:38:19.912Z,100090.11
2018-08-03T16:40:47.580Z,100091.81
2018-08-03T16:43:15.547Z,100087.79
2018-08-03T16:45:43.939Z,100087.05
2018-08-03T16:48:12.345Z,100082.98
2018-08-03T16:50:40.372Z,100079.31
2018-08-03T16:53:09.696Z,100085.99
2018-08-03T16:55:37.367Z,100081.84
2018-08-03T16:58:05.274Z,100083.56
2018-08-03T17:00:34.402Z,100083.66
2018-08-03T17:03:02.986Z,100085.60
2018-08-03T17:05:32.239Z,100085.84
2018-08-03T17:08:03.519Z,100081.50
2018-08-03T17:10:31.176Z,100085.16
2018-08-03T17:13:00.195Z,100082.99
2018-08-03T17:15:28.727Z,100094.64
2018-08-03T17:17:56.327Z,100080.77
2018-08-03T17:20:24.404Z,100074.70
2018-08-03T17:22:52.638Z,100083.00
2018-08-03T17:25:20.259Z,100083.23
2018-08-03T17:27:48.959Z,100087.64
2018-08-03T17:30:16.593Z,100086.78
2018-08-03T17:32:44.218Z,100082.62
2018-08-03T17:35:12.234Z,100084.27
2018-08-03T17:37:40.359Z,100074.78
2018-08-03T17:40:07.990Z,100084.45
2018-08-03T17:42:37.108Z,100076.94
2018-08-03T17:45:04.690Z,100080.48
2018-08-03T17:47:33.110Z,100081.58
2018-08-03T17:50:01.029Z,100083.47
2018-08-03T17:52:29.475Z,100080.89
2018-08-03T17:54:57.823Z,100081.98
2018-08-03T17:57:27.500Z,100080.83
2018-08-03T17:59:55.131Z,100078.25
2018-08-03T18:02:24.447Z,100077.66
2018-08-03T18:04:56.406Z,100084.19
2018-08-03T18:07:24.575Z,100081.36
2018-08-03T18:09:52.866Z,100082.92
2018-08-03T18:12:20.759Z,100084.52
2018-08-03T18:14:48.961Z,100083.59
2018-08-03T18:17:17.687Z,100084.36
2018-08-03T18:19:45.592Z,100080.35
2018-08-03T18:22:13.208Z,100091.87
2018-08-03T18:24:43.421Z,100091.77
2018-08-03T18:27:12.296Z,100085.06
2018-08-03T18:29:40.710Z,100084.13
2018-08-03T18:32:08.567Z,100091.77
2018-08-03T18:34:36.519Z,100083.91
2018-08-03T18:37:04.142Z,100078.30
2018-08-03T18:39:31.781Z,100082.11
2018-08-03T18:42:06.909Z,100085.60
2018-08-03T18:44:35.560Z,100081.60
2018-08-03T18:47:03.230Z,100087.56
2018-08-03T18:49:36.140Z,100087.77
2018-08-03T18:52:04.254Z,100091.77
2018-08-03T18:54:32.879Z,100089.14
2018-08-03T18:57:07.885Z,100089.00
2018-08-03T18:59:36.033Z,100090.24
2018-08-03T19:02:03.720Z,100088.16
2018-08-03T19:04:32.491Z,100086.05
2018-08-03T19:07:00.135Z,100090.88
2018-08-03T19:09:28.485Z,100092.63
2018-08-03T19:11:57.153Z,100098.27
2018-08-03T19:14:24.794Z,100100.05
2018-08-03T19:16:52.440Z,100104.83
2018-08-03T19:19:20.385Z,100104.63
2018-08-03T19:21:49.182Z,100109.95
2018-08-03T19:24:18.480Z,100108.65
2018-08-03T19:26:46.427Z,100113.17
2018-08-03T19:29:16.320Z,100120.72
2018-08-03T19:31:44.016Z,100121.17
2018-08-03T19:34:11.915Z,100123.52
2018-08-03T19:36:40.108Z,100125.59
2018-08-03T19:39:07.690Z,100126.23
2018-08-03T19:41:36.531Z,100125.27
2018-08-03T19:44:08.587Z,100125.48
2018-08-03T19:46:36.266Z,100125.36
2018-08-03T19:49:05.168Z,100123.63
2018-08-03T19:51:32.787Z,100124.66
2018-08-03T19:54:03.790Z,100123.78
2018-08-03T19:56:35.267Z,100126.23
2018-08-03T19:59:03.781Z,100123.42
2018-08-03T20:01:31.391Z,100130.23
2018-08-03T20:03:59.314Z,100133.47
2018-08-03T20:06:27.739Z,100133.70
2018-08-03T20:08:56.282Z,100137.23
2018-08-03T20:11:24.278Z,100135.50
2018-08-03T20:13:52.671Z,100134.30
2018-08-03T20:16:21.110Z,100132.04
2018-08-03T20:18:49.754Z,100134.72
2018-08-03T20:21:19.095Z,100133.55
2018-08-03T20:23:48.130Z,100134.86
2018-08-03T20:26:16.688Z,100132.02
2018-08-03T20:28:46.690Z,100132.44
2018-08-03T20:31:15.388Z,100135.57
2018-08-03T20:33:43.540Z,100144.82
2018-08-03T20:36:11.183Z,100140.59
2018-08-03T20:38:38.850Z,100144.06
2018-08-03T20:41:07.467Z,100148.56
2018-08-03T20:43:35.094Z,100156.69
2018-08-03T20:46:02.729Z,100159.00
2018-08-03T20:48:32.327Z,100158.78
2018-08-03T20:50:59.939Z,100162.69
2018-08-03T20:53:28.166Z,100172.44
2018-08-03T20:55:56.081Z,100172.33
2018-08-03T20:58:23.732Z,100170.21
2018-08-03T21:00:51.351Z,100168.39
2018-08-03T21:03:20.513Z,100179.51
2018-08-03T21:05:49.136Z,100183.50
2018-08-03T21:08:17.216Z,100178.94
2018-08-03T21:10:44.855Z,100183.20
2018-08-03T21:13:12.515Z,100188.85
2018-08-03T21:15:41.366Z,100193.66
2018-08-03T21:18:09.816Z,100192.95
2018-08-03T21:20:37.438Z,100190.91
2018-08-03T21:23:08.000Z,100191.27
2018-08-03T21:25:36.600Z,100191.58
2018-08-03T21:28:04.229Z,100201.55
2018-08-03T21:30:32.228Z,100200.70
2018-08-03T21:32:59.835Z,100192.80
2018-08-03T21:35:27.506Z,100198.88
2018-08-03T21:37:55.479Z,100194.24
2018-08-03T21:40:23.150Z,100196.48
2018-08-03T21:42:52.500Z,100187.80
2018-08-03T21:45:21.246Z,100193.48
2018-08-03T21:47:49.921Z,100186.03
2018-08-03T21:50:17.610Z,100195.78
2018-08-03T21:52:46.589Z,100191.34
2018-08-03T21:55:14.314Z,100191.34
2018-08-03T21:57:42.006Z,100189.97
2018-08-03T22:00:11.884Z,100188.77
2018-08-03T22:02:39.583Z,100188.59
2018-08-03T22:05:08.268Z,100182.81
2018-08-03T22:07:36.747Z,100183.88
2018-08-03T22:10:05.937Z,100180.54
2018-08-03T22:17:32.955Z,100182.34
2018-08-03T22:20:01.274Z,100180.16
2018-08-03T22:22:28.966Z,100184.27
2018-08-03T22:24:56.906Z,100181.84
2018-08-03T22:27:25.366Z,100176.45
2018-08-03T22:29:57.418Z,100166.66
2018-08-03T22:32:25.439Z,100163.93
2018-08-03T22:34:53.122Z,100159.52
2018-08-03T22:37:21.479Z,100157.55
2018-08-03T22:39:52.312Z,100157.98
2018-08-03T22:42:19.997Z,100158.74
2018-08-03T22:44:47.681Z,100165.48
2018-08-03T22:47:16.810Z,100158.87
2018-08-03T22:49:49.051Z,100159.63
2018-08-03T22:54:55.509Z,100158.72
2018-08-03T22:57:24.310Z,100161.82
2018-08-03T22:59:53.223Z,100166.08
2018-08-03T23:02:21.644Z,100158.51
2018-08-03T23:04:49.324Z,100160.33
2018-08-03T23:07:16.926Z,100159.12
2018-08-03T23:15:01.640Z,100159.29
2018-08-03T23:17:30.291Z,100160.32
2018-08-03T23:19:57.797Z,100157.28
2018-08-03T23:22:25.783Z,100161.69
2018-08-03T23:30:11.502Z,100165.54
2018-08-03T23:32:39.059Z,100166.81
2018-08-03T23:35:07.391Z,100162.62
2018-08-03T23:37:36.012Z,100158.42
2018-08-03T23:40:03.575Z,100151.52
2018-08-03T23:42:31.169Z,100149.21
2018-08-03T23:44:58.816Z,100146.59
2018-08-03T23:47:26.759Z,100145.34
2018-08-03T23:49:54.266Z,100143.57
2018-08-03T23:52:22.778Z,100138.86
2018-08-03T23:54:52.530Z,100138.77
2018-08-03T23:57:21.271Z,100136.79
2018-08-03T23:59:51.937Z,100136.69
